createdAt,value
2022-08-19T00:02:16.183Z,98218.78
2022-08-19T00:05:18.772Z,98221.19
2022-08-19T00:08:20.850Z,98224.44
2022-08-19T00:11:25.712Z,98233.53
2022-08-19T00:14:28.719Z,98234.91
2022-08-19T00:17:30.831Z,98225.59
2022-08-19T00:20:32.916Z,98219.47
2022-08-19T00:23:38.153Z,98233.06
2022-08-19T00:26:40.576Z,98225.84
2022-08-19T00:29:42.699Z,98229.59
2022-08-19T00:32:44.886Z,98229.63
2022-08-19T00:35:46.960Z,98226.22
2022-08-19T00:38:58.288Z,98228.56
2022-08-19T00:42:00.377Z,98239.25
2022-08-19T00:45:02.560Z,98236.34
2022-08-19T00:48:05.514Z,98233.13
2022-08-19T00:51:17.143Z,98229.16
2022-08-19T00:54:28.643Z,98230.53
2022-08-19T00:57:41.423Z,98231.31
2022-08-19T01:00:43.681Z,98237.19
2022-08-19T01:03:57.783Z,98232.38
2022-08-19T01:07:02.528Z,98240.09
2022-08-19T01:10:06.115Z,98229.94
2022-08-19T01:13:08.279Z,98235.00
2022-08-19T01:16:12.872Z,98246.78
2022-08-19T01:19:30.775Z,98237.69
2022-08-19T01:22:54.866Z,98249.13
2022-08-19T01:25:57.624Z,98257.91
2022-08-19T01:29:02.156Z,98271.22
2022-08-19T01:32:09.087Z,98258.69
2022-08-19T01:35:32.480Z,98265.81
2022-08-19T01:38:38.103Z,98266.88
2022-08-19T01:41:47.737Z,98268.25
2022-08-19T01:44:49.979Z,98263.66
2022-08-19T01:48:01.635Z,98262.50
2022-08-19T01:51:05.098Z,98268.94
2022-08-19T01:54:08.952Z,98269.03
2022-08-19T01:57:13.278Z,98274.41
2022-08-19T02:00:16.876Z,98276.31
2022-08-19T02:03:18.979Z,98274.47
2022-08-19T02:06:21.236Z,98274.97
2022-08-19T02:09:29.308Z,98280.56
2022-08-19T02:12:31.443Z,98278.72
2022-08-19T02:15:33.573Z,98276.31
2022-08-19T02:18:35.654Z,98277.13
2022-08-19T02:21:38.528Z,98278.44
2022-08-19T02:24:40.608Z,98284.31
2022-08-19T02:27:43.131Z,98283.22
2022-08-19T02:30:45.335Z,98298.41
2022-08-19T02:33:48.067Z,98308.16
2022-08-19T02:36:51.779Z,98309.78
2022-08-19T02:39:54.222Z,98308.81
2022-08-19T02:42:56.618Z,98317.59
2022-08-19T02:45:58.765Z,98315.19
2022-08-19T02:49:03.656Z,98310.69
2022-08-19T02:52:05.838Z,98315.47
2022-08-19T02:55:08.779Z,98322.38
2022-08-19T02:58:10.930Z,98326.66
2022-08-19T03:01:25.001Z,98320.53
2022-08-19T03:04:27.259Z,98328.75
2022-08-19T03:07:29.334Z,98322.56
2022-08-19T03:10:31.423Z,98327.28
2022-08-19T03:13:33.821Z,98327.41
2022-08-19T03:16:46.235Z,98336.06
2022-08-19T03:19:48.319Z,98341.41
2022-08-19T03:22:50.392Z,98343.59
2022-08-19T03:25:59.215Z,98344.41
2022-08-19T03:29:30.272Z,98350.47
2022-08-19T03:32:33.396Z,98350.56
2022-08-19T03:35:37.699Z,98350.13
2022-08-19T03:38:44.443Z,98357.03
2022-08-19T03:41:48.432Z,98344.09
2022-08-19T03:44:50.759Z,98351.78
2022-08-19T03:47:53.091Z,98353.66
2022-08-19T03:50:56.292Z,98360.59
2022-08-19T03:53:59.975Z,98354.03
2022-08-19T03:57:02.122Z,98351.00
2022-08-19T04:00:13.640Z,98346.94
2022-08-19T04:03:16.514Z,98366.06
2022-08-19T04:06:22.494Z,98368.41
2022-08-19T04:09:24.787Z,98366.22
2022-08-19T04:12:26.883Z,98357.63
2022-08-19T04:15:32.266Z,98366.72
2022-08-19T04:18:36.432Z,98362.28
2022-08-19T04:21:38.660Z,98365.47
2022-08-19T04:24:40.770Z,98380.16
2022-08-19T04:27:47.283Z,98383.84
2022-08-19T04:30:52.527Z,98390.22
2022-08-19T04:34:00.426Z,98381.84
2022-08-19T04:37:02.634Z,98389.97
2022-08-19T04:40:25.302Z,98398.72
2022-08-19T04:43:27.663Z,98403.03
2022-08-19T04:46:40.213Z,98411.06
2022-08-19T04:49:53.232Z,98415.25
2022-08-19T04:52:56.853Z,98408.31
2022-08-19T04:56:13.630Z,98406.75
2022-08-19T04:59:16.965Z,98416.34
2022-08-19T05:02:19.112Z,98410.16
2022-08-19T05:05:21.838Z,98423.66
2022-08-19T05:08:30.942Z,98422.94
2022-08-19T05:11:36.122Z,98424.44
2022-08-19T05:14:38.206Z,98418.13
2022-08-19T05:18:00.222Z,98420.91
2022-08-19T05:21:30.123Z,98424.88
2022-08-19T05:24:35.190Z,98430.53
2022-08-19T05:27:37.993Z,98433.69
2022-08-19T05:30:47.133Z,98438.97
2022-08-19T05:33:51.021Z,98438.09
2022-08-19T05:36:57.989Z,98441.44
2022-08-19T05:40:00.254Z,98440.13
2022-08-19T05:43:03.083Z,98447.66
2022-08-19T05:46:07.747Z,98450.16
2022-08-19T05:49:09.916Z,98450.75
2022-08-19T05:52:14.383Z,98449.03
2022-08-19T05:55:21.358Z,98454.06
2022-08-19T05:58:23.480Z,98451.47
2022-08-19T06:01:30.309Z,98449.38
2022-08-19T06:04:32.433Z,98450.75
2022-08-19T06:10:37.935Z,98452.19
2022-08-19T06:13:40.023Z,98456.22
2022-08-19T06:16:42.884Z,98453.41
2022-08-19T06:19:44.970Z,98453.19
2022-08-19T06:22:50.137Z,98450.56
2022-08-19T06:25:52.231Z,98451.88
2022-08-19T06:28:54.304Z,98445.63
2022-08-19T06:31:57.774Z,98453.47
2022-08-19T06:34:59.849Z,98453.91
2022-08-19T06:38:01.939Z,98445.16
2022-08-19T06:41:07.266Z,98450.53
2022-08-19T06:44:13.131Z,98459.44
2022-08-19T06:47:23.758Z,98453.28
2022-08-19T06:50:27.299Z,98451.44
2022-08-19T06:53:30.468Z,98456.78
2022-08-19T06:56:35.638Z,98456.25
2022-08-19T06:59:37.871Z,98457.03
2022-08-19T07:02:42.628Z,98454.06
2022-08-19T07:05:46.330Z,98455.63
2022-08-19T07:08:49.287Z,98451.88
2022-08-19T07:11:53.469Z,98458.53
2022-08-19T07:14:55.559Z,98451.13
2022-08-19T07:17:57.658Z,98464.50
2022-08-19T07:21:25.295Z,98468.50
2022-08-19T07:24:33.683Z,98461.25
2022-08-19T07:27:36.070Z,98481.28
2022-08-19T07:30:38.951Z,98468.25
2022-08-19T07:33:41.991Z,98472.78
2022-08-19T07:36:45.756Z,98472.22
2022-08-19T07:39:47.908Z,98477.03
2022-08-19T07:42:50.035Z,98483.44
2022-08-19T07:45:58.189Z,98479.91
2022-08-19T07:49:01.438Z,98483.13
2022-08-19T07:52:07.842Z,98484.72
2022-08-19T07:55:40.284Z,98489.81
2022-08-19T07:58:36.274Z,98493.53
2022-08-19T08:01:41.485Z,98491.69
2022-08-19T08:05:02.820Z,98486.59
2022-08-19T08:08:23.830Z,98490.72
2022-08-19T08:11:29.893Z,98495.38
2022-08-19T08:14:36.283Z,98497.47
2022-08-19T08:17:49.781Z,98506.91
2022-08-19T08:20:53.859Z,98501.56
2022-08-19T08:23:56.745Z,98501.00
2022-08-19T08:27:00.062Z,98509.53
2022-08-19T08:30:03.002Z,98517.13
2022-08-19T08:33:05.736Z,98506.50
2022-08-19T08:36:09.004Z,98523.84
2022-08-19T08:39:11.503Z,98511.53
2022-08-19T08:42:24.291Z,98511.81
2022-08-19T08:45:26.604Z,98504.03
2022-08-19T08:48:59.268Z,98498.97
2022-08-19T08:52:10.918Z,98512.09
2022-08-19T08:55:36.840Z,98510.31
2022-08-19T08:58:59.582Z,98512.19
2022-08-19T09:02:02.178Z,98511.59
2022-08-19T09:05:05.101Z,98526.53
2022-08-19T09:08:14.904Z,98521.91
2022-08-19T09:11:44.488Z,98517.94
2022-08-19T09:14:52.500Z,98533.94
2022-08-19T09:17:54.802Z,98513.84
2022-08-19T09:20:57.791Z,98507.88
2022-08-19T09:24:00.209Z,98505.38
2022-08-19T09:27:06.691Z,98511.66
2022-08-19T09:30:24.816Z,98506.97
2022-08-19T09:33:27.069Z,98511.50
2022-08-19T09:36:34.670Z,98524.28
2022-08-19T09:39:37.309Z,98498.94
2022-08-19T09:42:50.334Z,98536.16
2022-08-19T09:45:54.868Z,98519.84
2022-08-19T09:49:02.947Z,98511.03
2022-08-19T09:52:13.537Z,98529.63
2022-08-19T09:55:17.043Z,98523.81
2022-08-19T09:58:24.663Z,98519.44
2022-08-19T10:01:30.340Z,98519.78
2022-08-19T10:04:50.972Z,98530.66
2022-08-19T10:07:53.178Z,98528.97
2022-08-19T10:10:56.050Z,98522.16
2022-08-19T10:13:58.196Z,98527.84
2022-08-19T10:17:01.367Z,98522.00
2022-08-19T10:20:19.748Z,98496.13
2022-08-19T10:23:22.462Z,98496.50
2022-08-19T10:26:28.648Z,98489.59
2022-08-19T10:29:33.543Z,98471.69
2022-08-19T10:32:35.659Z,98488.16
2022-08-19T10:35:42.716Z,98485.94
2022-08-19T10:39:01.643Z,98483.13
2022-08-19T10:42:08.035Z,98496.13
2022-08-19T10:45:11.265Z,98496.28
2022-08-19T10:48:15.643Z,98500.25
2022-08-19T10:51:47.873Z,98499.50
2022-08-19T10:55:09.229Z,98486.03
2022-08-19T10:58:23.489Z,98488.16
2022-08-19T11:01:27.676Z,98498.50
2022-08-19T11:04:29.831Z,98499.81
2022-08-19T11:07:31.998Z,98508.84
2022-08-19T11:10:34.078Z,98497.63
2022-08-19T11:13:39.176Z,98514.31
2022-08-19T11:16:42.299Z,98512.19
2022-08-19T11:19:44.411Z,98513.00
2022-08-19T11:22:46.643Z,98516.88
2022-08-19T11:25:51.041Z,98502.97
2022-08-19T11:28:55.379Z,98491.50
2022-08-19T11:31:57.530Z,98502.84
2022-08-19T11:34:59.615Z,98499.03
2022-08-19T11:38:02.405Z,98509.25
2022-08-19T11:41:06.883Z,98513.00
2022-08-19T11:44:09.063Z,98519.28
2022-08-19T11:47:11.131Z,98522.75
2022-08-19T11:50:13.244Z,98520.75
2022-08-19T11:53:15.327Z,98507.53
2022-08-19T11:56:17.747Z,98503.78
2022-08-19T11:59:19.840Z,98511.56
2022-08-19T12:02:22.702Z,98510.50
2022-08-19T12:05:24.833Z,98505.31
2022-08-19T12:08:27.030Z,98511.38
2022-08-19T12:11:29.336Z,98499.50
2022-08-19T12:14:36.779Z,98498.19
2022-08-19T12:17:38.964Z,98492.97
2022-08-19T12:20:42.167Z,98494.34
2022-08-19T12:23:45.983Z,98511.47
2022-08-19T12:26:52.465Z,98505.25
2022-08-19T12:29:55.645Z,98497.84
2022-08-19T12:32:58.253Z,98508.00
2022-08-19T12:36:06.273Z,98481.78
2022-08-19T12:39:10.694Z,98482.81
2022-08-19T12:42:14.908Z,98481.19
2022-08-19T12:45:17.096Z,98502.81
2022-08-19T12:48:33.368Z,98495.72
2022-08-19T12:51:36.854Z,98535.75
2022-08-19T12:54:38.944Z,98517.47
2022-08-19T12:57:41.238Z,98513.34
2022-08-19T13:00:43.366Z,98514.22
2022-08-19T13:03:48.490Z,98527.19
2022-08-19T13:06:52.810Z,98517.81
2022-08-19T13:09:54.899Z,98519.16
2022-08-19T13:12:57.747Z,98513.22
2022-08-19T13:16:04.111Z,98533.63
2022-08-19T13:19:06.280Z,98526.06
2022-08-19T13:22:13.234Z,98523.38
2022-08-19T13:25:18.604Z,98539.03
2022-08-19T13:28:20.677Z,98508.00
2022-08-19T13:31:52.896Z,98546.06
2022-08-19T13:34:54.970Z,98536.38
2022-08-19T13:37:57.114Z,98530.88
2022-08-19T13:41:09.960Z,98557.88
2022-08-19T13:44:14.881Z,98560.53
2022-08-19T13:47:17.372Z,98562.84
2022-08-19T13:50:22.700Z,98561.72
2022-08-19T13:53:25.587Z,98558.19
2022-08-19T13:56:27.722Z,98556.88
2022-08-19T13:59:29.831Z,98569.72
2022-08-19T14:02:31.949Z,98586.19
2022-08-19T14:05:34.082Z,98581.75
2022-08-19T14:08:44.213Z,98573.44
2022-08-19T14:11:48.071Z,98574.03
2022-08-19T14:14:50.367Z,98544.78
2022-08-19T14:17:52.652Z,98571.13
2022-08-19T14:20:56.479Z,98568.19
2022-08-19T14:23:59.122Z,98577.41
2022-08-19T14:27:01.451Z,98556.41
2022-08-19T14:30:08.756Z,98568.34
2022-08-19T14:33:10.898Z,98570.38
2022-08-19T14:36:13.005Z,98591.00
2022-08-19T14:39:15.113Z,98569.03
2022-08-19T14:42:17.264Z,98576.13
2022-08-19T14:45:19.599Z,98582.94
2022-08-19T14:48:22.550Z,98584.75
2022-08-19T14:51:31.438Z,98578.72
2022-08-19T14:54:33.551Z,98574.16
2022-08-19T14:57:35.669Z,98613.66
2022-08-19T15:00:37.825Z,98606.75
2022-08-19T15:03:41.414Z,98584.00
2022-08-19T15:06:43.530Z,98574.03
2022-08-19T15:09:45.626Z,98564.16
2022-08-19T15:12:51.720Z,98598.34
2022-08-19T15:15:54.708Z,98574.28
2022-08-19T15:18:57.998Z,98590.19
2022-08-19T15:22:00.208Z,98592.59
2022-08-19T15:25:02.803Z,98592.31
2022-08-19T15:28:04.944Z,98597.00
2022-08-19T15:31:07.092Z,98588.13
2022-08-19T15:34:09.275Z,98595.06
2022-08-19T15:37:11.374Z,98593.56
2022-08-19T15:40:13.583Z,98588.16
2022-08-19T15:43:17.045Z,98606.09
2022-08-19T15:46:21.972Z,98580.28
2022-08-19T15:49:24.073Z,98581.28
2022-08-19T15:52:27.256Z,98593.78
2022-08-19T15:55:34.680Z,98606.75
2022-08-19T15:58:55.991Z,98597.16
2022-08-19T16:02:16.827Z,98597.78
2022-08-19T16:05:43.327Z,98597.56
2022-08-19T16:08:48.851Z,98603.78
2022-08-19T16:11:56.906Z,98607.94
2022-08-19T16:15:01.879Z,98622.28
2022-08-19T16:18:04.688Z,98588.22
2022-08-19T16:21:08.129Z,98598.59
2022-08-19T16:24:13.078Z,98607.00
2022-08-19T16:27:16.095Z,98620.84
2022-08-19T16:30:18.377Z,98616.56
2022-08-19T16:33:22.793Z,98604.53
2022-08-19T16:36:25.550Z,98626.31
2022-08-19T16:39:28.320Z,98614.03
2022-08-19T16:42:30.458Z,98619.69
2022-08-19T16:45:32.588Z,98625.75
2022-08-19T16:48:35.014Z,98616.78
2022-08-19T16:51:38.455Z,98608.53
2022-08-19T16:54:40.649Z,98614.31
2022-08-19T16:57:45.486Z,98638.75
2022-08-19T17:00:48.688Z,98611.75
2022-08-19T17:03:52.694Z,98622.88
2022-08-19T17:06:54.824Z,98617.81
2022-08-19T17:09:57.148Z,98623.53
2022-08-19T17:13:00.040Z,98605.84
2022-08-19T17:16:02.391Z,98636.56
2022-08-19T17:19:06.911Z,98612.72
2022-08-19T17:22:11.390Z,98614.72
2022-08-19T17:25:13.701Z,98608.28
2022-08-19T17:28:19.018Z,98619.50
2022-08-19T17:31:23.694Z,98619.53
2022-08-19T17:34:25.844Z,98640.03
2022-08-19T17:37:28.279Z,98621.59
2022-08-19T17:40:30.655Z,98619.66
2022-08-19T17:43:37.053Z,98626.75
2022-08-19T17:46:41.080Z,98613.84
2022-08-19T17:49:43.179Z,98609.22
2022-08-19T17:52:45.251Z,98639.00
2022-08-19T17:55:48.123Z,98632.34
2022-08-19T17:58:57.614Z,98649.31
2022-08-19T18:02:02.418Z,98635.66
2022-08-19T18:05:06.146Z,98635.13
2022-08-19T18:08:09.562Z,98632.16
2022-08-19T18:11:11.728Z,98628.97
2022-08-19T18:14:14.107Z,98633.47
2022-08-19T18:17:18.079Z,98623.63
2022-08-19T18:20:20.350Z,98643.31
2022-08-19T18:23:41.334Z,98626.38
2022-08-19T18:26:45.198Z,98633.09
2022-08-19T18:29:47.326Z,98634.81
2022-08-19T18:32:52.680Z,98640.25
2022-08-19T18:35:54.759Z,98629.75
2022-08-19T18:39:15.411Z,98639.06
2022-08-19T18:42:37.175Z,98655.25
2022-08-19T18:45:58.575Z,98646.78
2022-08-19T18:49:06.836Z,98649.75
2022-08-19T18:52:09.044Z,98658.28
2022-08-19T18:55:11.699Z,98652.94
2022-08-19T18:58:13.895Z,98642.75
2022-08-19T19:01:22.157Z,98645.72
2022-08-19T19:04:28.043Z,98645.16
2022-08-19T19:07:30.133Z,98647.59
2022-08-19T19:10:32.232Z,98654.78
2022-08-19T19:13:35.150Z,98659.06
2022-08-19T19:16:41.913Z,98663.34
2022-08-19T19:19:45.785Z,98653.72
2022-08-19T19:22:47.990Z,98660.13
2022-08-19T19:25:51.387Z,98663.84
2022-08-19T19:28:54.898Z,98658.00
2022-08-19T19:32:07.031Z,98663.84
2022-08-19T19:35:10.707Z,98660.94
2022-08-19T19:38:12.828Z,98668.97
2022-08-19T19:41:16.263Z,98669.72
2022-08-19T19:44:30.875Z,98662.03
2022-08-19T19:47:34.695Z,98672.44
2022-08-19T19:50:36.959Z,98676.13
2022-08-19T19:53:39.300Z,98678.53
2022-08-19T19:56:45.004Z,98674.25
2022-08-19T19:59:51.433Z,98683.84
2022-08-19T20:02:55.921Z,98672.38
2022-08-19T20:05:59.303Z,98678.22
2022-08-19T20:09:10.888Z,98678.56
2022-08-19T20:12:13.022Z,98680.16
2022-08-19T20:15:15.171Z,98675.91
2022-08-19T20:18:17.330Z,98683.84
2022-08-19T20:21:19.491Z,98685.47
2022-08-19T20:24:27.562Z,98694.84
2022-08-19T20:27:31.204Z,98683.38
2022-08-19T20:30:39.560Z,98687.66
2022-08-19T20:33:48.686Z,98690.25
2022-08-19T20:36:50.853Z,98700.13
2022-08-19T20:39:53.115Z,98696.13
2022-08-19T20:42:55.589Z,98697.72
2022-08-19T20:45:57.707Z,98699.03
2022-08-19T20:49:00.123Z,98686.72
2022-08-19T20:52:03.813Z,98689.41
2022-08-19T20:55:06.527Z,98690.34
2022-08-19T20:58:10.097Z,98689.25
2022-08-19T21:01:13.678Z,98677.22
2022-08-19T21:04:17.574Z,98679.53
2022-08-19T21:07:19.725Z,98669.94
2022-08-19T21:10:21.829Z,98676.06
2022-08-19T21:13:24.123Z,98684.84
2022-08-19T21:16:26.523Z,98694.53
2022-08-19T21:19:28.814Z,98695.13
2022-08-19T21:22:31.207Z,98704.69
2022-08-19T21:25:33.571Z,98709.81
2022-08-19T21:28:36.697Z,98710.56
2022-08-19T21:31:38.972Z,98708.72
2022-08-19T21:34:43.819Z,98714.38
2022-08-19T21:37:48.622Z,98706.69
2022-08-19T21:40:51.299Z,98715.63
2022-08-19T21:43:53.962Z,98712.66
2022-08-19T21:46:56.250Z,98715.03
2022-08-19T21:49:58.392Z,98711.50
2022-08-19T21:53:01.166Z,98706.31
2022-08-19T21:56:06.810Z,98712.72
2022-08-19T21:59:08.932Z,98705.56
2022-08-19T22:02:20.994Z,98708.47
2022-08-19T22:05:24.655Z,98707.44
2022-08-19T22:08:27.307Z,98709.25
2022-08-19T22:11:30.016Z,98700.41
2022-08-19T22:14:33.699Z,98705.81
2022-08-19T22:17:36.555Z,98697.97
2022-08-19T22:20:38.799Z,98696.75
2022-08-19T22:23:42.111Z,98694.91
2022-08-19T22:26:44.190Z,98702.72
2022-08-19T22:29:46.319Z,98705.31
2022-08-19T22:32:56.165Z,98697.75
2022-08-19T22:35:58.795Z,98695.88
2022-08-19T22:39:00.899Z,98701.66
2022-08-19T22:42:03.036Z,98697.03
2022-08-19T22:45:10.368Z,98703.59
2022-08-19T22:48:14.171Z,98691.72
2022-08-19T22:51:35.221Z,98690.78
2022-08-19T22:54:37.300Z,98694.16
2022-08-19T22:57:40.018Z,98686.38
2022-08-19T23:00:42.180Z,98696.72
2022-08-19T23:03:44.294Z,98700.19
2022-08-19T23:06:46.417Z,98695.97
2022-08-19T23:09:48.590Z,98693.25
2022-08-19T23:12:50.774Z,98696.59
2022-08-19T23:15:53.766Z,98693.22
2022-08-19T23:18:56.142Z,98688.13
2022-08-19T23:21:58.765Z,98674.44
2022-08-19T23:25:10.268Z,98671.84
2022-08-19T23:28:31.107Z,98676.34
2022-08-19T23:31:33.240Z,98672.69
2022-08-19T23:34:35.369Z,98671.56
2022-08-19T23:37:37.684Z,98671.41
2022-08-19T23:40:39.958Z,98670.44
2022-08-19T23:43:42.117Z,98661.97
2022-08-19T23:46:55.174Z,98662.97
2022-08-19T23:49:58.143Z,98658.47
2022-08-19T23:53:00.446Z,98655.97
2022-08-19T23:56:02.581Z,98657.59
2022-08-19T23:59:05.474Z,98661.81
